createdAt,value
2022-07-30T00:01:00.263Z,16.80
2022-07-30T00:03:22.192Z,16.80
2022-07-30T00:05:45.425Z,16.80
2022-07-30T00:08:07.289Z,16.80
2022-07-30T00:10:29.176Z,16.70
2022-07-30T00:12:51.387Z,16.60
2022-07-30T00:15:13.523Z,16.60
2022-07-30T00:17:35.345Z,16.50
2022-07-30T00:19:57.168Z,16.40
2022-07-30T00:22:20.404Z,16.30
2022-07-30T00:24:43.098Z,16.20
2022-07-30T00:27:05.180Z,16.20
2022-07-30T00:29:27.230Z,16.10
2022-07-30T00:31:50.825Z,16.00
2022-07-30T00:34:12.953Z,15.90
2022-07-30T00:36:34.867Z,15.80
2022-07-30T00:39:00.773Z,15.80
2022-07-30T00:41:23.700Z,15.70
2022-07-30T00:43:46.232Z,15.70
2022-07-30T00:46:08.312Z,15.60
2022-07-30T00:48:30.159Z,15.60
2022-07-30T00:50:52.501Z,15.60
2022-07-30T00:53:14.390Z,15.50
2022-07-30T00:55:37.725Z,15.50
2022-07-30T00:57:59.708Z,15.50
2022-07-30T01:00:21.935Z,15.50
2022-07-30T01:02:44.186Z,15.50
2022-07-30T01:05:07.384Z,15.50
2022-07-30T01:07:29.820Z,15.40
2022-07-30T01:09:51.700Z,15.40
2022-07-30T01:12:20.548Z,15.40
2022-07-30T01:14:42.735Z,15.40
2022-07-30T01:17:05.689Z,15.30
2022-07-30T01:19:48.367Z,15.30
2022-07-30T01:22:17.156Z,15.30
2022-07-30T01:24:43.806Z,15.30
2022-07-30T01:27:08.242Z,15.30
2022-07-30T01:29:32.218Z,15.20
2022-07-30T01:31:59.894Z,15.10
2022-07-30T01:34:24.781Z,15.10
2022-07-30T01:36:48.350Z,15.00
2022-07-30T01:39:10.959Z,15.00
2022-07-30T01:41:33.506Z,14.90
2022-07-30T01:43:57.455Z,14.90
2022-07-30T01:46:20.576Z,14.80
2022-07-30T01:48:46.387Z,14.80
2022-07-30T01:51:09.785Z,14.70
2022-07-30T01:53:36.578Z,14.70
2022-07-30T01:56:01.059Z,14.70
2022-07-30T01:58:27.338Z,14.70
2022-07-30T02:00:55.563Z,14.60
2022-07-30T02:03:18.922Z,14.50
2022-07-30T02:05:50.038Z,14.50
2022-07-30T02:08:16.790Z,14.40
2022-07-30T02:10:47.121Z,14.40
2022-07-30T02:13:15.003Z,14.40
2022-07-30T02:15:43.231Z,14.40
2022-07-30T02:18:14.509Z,14.30
2022-07-30T02:20:38.553Z,14.30
2022-07-30T02:23:04.140Z,14.30
2022-07-30T02:25:28.479Z,14.30
2022-07-30T02:27:55.508Z,14.20
2022-07-30T02:30:19.290Z,14.20
2022-07-30T02:32:44.756Z,14.20
2022-07-30T02:35:16.572Z,14.20
2022-07-30T02:37:43.565Z,14.10
2022-07-30T02:40:07.484Z,14.10
2022-07-30T02:42:31.428Z,14.00
2022-07-30T02:44:56.486Z,14.00
2022-07-30T02:47:20.397Z,13.90
2022-07-30T02:49:57.724Z,13.90
2022-07-30T02:52:21.761Z,13.90
2022-07-30T02:54:46.243Z,13.90
2022-07-30T02:57:09.611Z,13.80
2022-07-30T02:59:33.339Z,13.80
2022-07-30T03:01:58.416Z,13.80
2022-07-30T03:04:22.189Z,13.80
2022-07-30T03:06:46.077Z,13.80
2022-07-30T03:09:11.301Z,13.80
2022-07-30T03:11:37.937Z,13.70
2022-07-30T03:13:59.789Z,13.70
2022-07-30T03:16:24.614Z,13.70
2022-07-30T03:18:48.108Z,13.60
2022-07-30T03:21:12.736Z,13.60
2022-07-30T03:23:37.590Z,13.60
2022-07-30T03:26:03.239Z,13.60
2022-07-30T03:28:27.498Z,13.60
2022-07-30T03:30:51.701Z,13.60
2022-07-30T03:33:15.781Z,13.50
2022-07-30T03:35:39.200Z,13.50
2022-07-30T03:38:02.550Z,13.50
2022-07-30T03:40:25.113Z,13.50
2022-07-30T03:42:50.393Z,13.50
2022-07-30T03:45:18.076Z,13.40
2022-07-30T03:47:42.023Z,13.40
2022-07-30T03:50:07.575Z,13.40
2022-07-30T03:52:34.598Z,13.40
2022-07-30T03:54:57.107Z,13.30
2022-07-30T03:57:38.672Z,13.30
2022-07-30T04:00:02.073Z,13.30
2022-07-30T04:02:42.124Z,13.30
2022-07-30T04:05:24.034Z,13.40
2022-07-30T04:07:46.991Z,13.40
2022-07-30T04:10:11.489Z,13.40
2022-07-30T04:12:53.248Z,13.40
2022-07-30T04:16:37.946Z,13.40
2022-07-30T04:18:03.635Z,13.40
2022-07-30T04:20:30.715Z,13.40
2022-07-30T04:22:53.974Z,13.40
2022-07-30T04:25:18.498Z,13.40
2022-07-30T04:27:58.213Z,13.40
2022-07-30T04:30:27.233Z,13.40
2022-07-30T04:32:49.322Z,13.40
2022-07-30T04:35:51.191Z,13.50
2022-07-30T04:38:32.967Z,13.60
2022-07-30T04:40:55.273Z,13.60
2022-07-30T04:43:19.525Z,13.60
2022-07-30T04:45:44.637Z,13.60
2022-07-30T04:48:07.675Z,13.70
2022-07-30T04:50:52.381Z,13.70
2022-07-30T04:53:17.534Z,13.80
2022-07-30T04:55:47.749Z,13.90
2022-07-30T04:58:13.096Z,14.00
2022-07-30T05:00:41.137Z,14.00
2022-07-30T05:03:08.971Z,14.00
2022-07-30T05:05:33.002Z,14.10
2022-07-30T05:07:56.326Z,14.10
2022-07-30T05:10:19.236Z,14.20
2022-07-30T05:12:41.717Z,14.30
2022-07-30T05:15:03.510Z,14.40
2022-07-30T05:17:26.024Z,14.50
2022-07-30T05:19:49.232Z,14.50
2022-07-30T05:22:12.092Z,14.60
2022-07-30T05:24:34.094Z,14.70
2022-07-30T05:26:57.714Z,14.90
2022-07-30T05:29:22.206Z,15.00
2022-07-30T05:31:49.575Z,15.10
2022-07-30T05:34:12.598Z,15.20
2022-07-30T05:36:42.695Z,15.40
2022-07-30T05:39:06.601Z,15.50
2022-07-30T05:41:54.952Z,15.70
2022-07-30T05:44:24.068Z,15.80
2022-07-30T05:46:47.040Z,16.00
2022-07-30T05:49:09.218Z,16.10
2022-07-30T05:51:31.030Z,16.40
2022-07-30T05:53:54.325Z,16.60
2022-07-30T05:56:35.977Z,16.80
2022-07-30T05:59:05.256Z,17.00
2022-07-30T06:01:45.795Z,17.10
2022-07-30T06:04:14.071Z,17.20
2022-07-30T06:06:39.715Z,17.30
2022-07-30T06:09:02.926Z,17.40
2022-07-30T06:11:24.682Z,17.50
2022-07-30T06:13:47.533Z,17.60
2022-07-30T06:16:10.089Z,17.70
2022-07-30T06:18:32.125Z,17.70
2022-07-30T06:20:57.420Z,17.70
2022-07-30T06:23:41.404Z,17.80
2022-07-30T06:26:30.952Z,17.80
2022-07-30T06:28:53.060Z,17.90
2022-07-30T06:31:21.763Z,18.00
2022-07-30T06:33:44.505Z,18.00
2022-07-30T06:36:07.336Z,18.00
2022-07-30T06:38:42.065Z,18.20
2022-07-30T06:41:09.506Z,18.30
2022-07-30T06:43:46.036Z,18.40
2022-07-30T06:46:26.143Z,18.50
2022-07-30T06:48:48.448Z,18.60
2022-07-30T06:51:10.832Z,18.60
2022-07-30T06:53:39.965Z,18.70
2022-07-30T06:56:07.508Z,18.80
2022-07-30T06:58:39.308Z,18.90
2022-07-30T07:01:31.869Z,19.00
2022-07-30T07:03:53.613Z,19.10
2022-07-30T07:06:15.431Z,19.20
2022-07-30T07:08:39.108Z,19.40
2022-07-30T07:11:03.029Z,19.50
2022-07-30T07:13:29.065Z,19.50
2022-07-30T07:15:51.601Z,19.60
2022-07-30T07:18:17.851Z,19.70
2022-07-30T07:20:47.177Z,19.80
2022-07-30T07:23:12.407Z,19.90
2022-07-30T07:25:35.323Z,20.00
2022-07-30T07:28:11.184Z,20.10
2022-07-30T07:30:35.458Z,20.20
2022-07-30T07:32:59.402Z,20.30
2022-07-30T07:35:22.836Z,20.40
2022-07-30T07:37:46.249Z,20.60
2022-07-30T07:40:15.401Z,20.60
2022-07-30T07:42:38.321Z,20.70
2022-07-30T07:45:01.829Z,20.80
2022-07-30T07:47:28.645Z,20.90
2022-07-30T07:50:05.218Z,21.00
2022-07-30T07:52:28.741Z,21.20
2022-07-30T07:54:50.975Z,21.20
2022-07-30T07:57:14.743Z,21.30
2022-07-30T07:59:40.111Z,21.30
2022-07-30T08:02:08.100Z,21.40
2022-07-30T08:04:51.986Z,21.50
2022-07-30T08:07:43.886Z,21.50
2022-07-30T08:10:13.961Z,21.60
2022-07-30T08:12:55.933Z,21.70
2022-07-30T08:15:43.705Z,21.70
2022-07-30T08:18:14.571Z,21.80
2022-07-30T08:20:43.093Z,21.90
2022-07-30T08:23:08.765Z,21.90
2022-07-30T08:25:30.948Z,22.00
2022-07-30T08:27:53.245Z,22.10
2022-07-30T08:30:15.765Z,22.10
2022-07-30T08:32:38.247Z,22.30
2022-07-30T08:35:00.485Z,22.40
2022-07-30T08:37:23.660Z,22.40
2022-07-30T08:39:47.500Z,22.50
2022-07-30T08:42:09.310Z,22.50
2022-07-30T08:44:32.057Z,22.50
2022-07-30T08:46:56.222Z,22.60
2022-07-30T08:49:24.108Z,22.70
2022-07-30T08:51:46.745Z,22.80
2022-07-30T08:54:33.853Z,22.70
2022-07-30T08:56:59.040Z,22.70
2022-07-30T08:59:24.901Z,22.80
2022-07-30T09:02:10.396Z,22.80
2022-07-30T09:04:46.881Z,22.90
2022-07-30T09:07:09.153Z,22.90
2022-07-30T09:09:33.985Z,23.00
2022-07-30T09:11:58.228Z,23.20
2022-07-30T09:14:20.754Z,23.20
2022-07-30T09:16:44.534Z,23.20
2022-07-30T09:19:16.020Z,23.40
2022-07-30T09:21:38.416Z,23.60
2022-07-30T09:24:20.442Z,23.60
2022-07-30T09:27:06.725Z,23.80
2022-07-30T09:29:44.250Z,23.90
2022-07-30T09:32:25.682Z,24.10
2022-07-30T09:35:13.914Z,24.20
2022-07-30T09:38:04.534Z,24.20
2022-07-30T09:41:04.803Z,24.40
2022-07-30T09:43:48.602Z,24.50
2022-07-30T09:46:44.901Z,24.40
2022-07-30T09:49:16.016Z,24.60
2022-07-30T09:54:25.931Z,24.80
2022-07-30T09:56:54.094Z,24.90
2022-07-30T09:59:34.765Z,25.00
2022-07-30T10:02:00.936Z,25.10
2022-07-30T10:04:49.840Z,25.20
2022-07-30T10:07:25.688Z,25.20
2022-07-30T10:09:54.102Z,25.00
2022-07-30T10:12:17.084Z,24.90
2022-07-30T10:14:47.013Z,24.90
2022-07-30T10:17:13.747Z,25.20
2022-07-30T10:19:41.788Z,25.40
2022-07-30T10:22:23.020Z,25.70
2022-07-30T10:25:08.160Z,25.90
2022-07-30T10:27:49.852Z,25.90
2022-07-30T10:30:28.241Z,26.20
2022-07-30T10:32:52.513Z,26.50
2022-07-30T10:35:34.590Z,26.40
2022-07-30T10:37:59.462Z,26.50
2022-07-30T10:40:30.795Z,26.10
2022-07-30T10:43:31.703Z,26.30
2022-07-30T10:46:05.146Z,26.20
2022-07-30T10:48:34.098Z,26.20
2022-07-30T10:50:59.752Z,26.30
2022-07-30T10:53:37.858Z,26.30
2022-07-30T10:56:22.423Z,25.70
2022-07-30T10:59:07.896Z,25.70
2022-07-30T11:02:03.932Z,25.70
2022-07-30T11:04:30.729Z,25.60
2022-07-30T11:06:53.560Z,25.20
2022-07-30T11:09:40.955Z,25.10
2022-07-30T11:12:06.443Z,25.40
2022-07-30T11:15:06.591Z,25.70
2022-07-30T11:18:02.370Z,25.60
2022-07-30T11:20:26.345Z,25.10
2022-07-30T11:22:51.075Z,24.90
2022-07-30T11:25:51.705Z,24.70
2022-07-30T11:28:36.541Z,24.60
2022-07-30T11:30:58.960Z,25.80
2022-07-30T11:33:32.126Z,26.00
2022-07-30T11:36:13.356Z,26.80
2022-07-30T11:38:55.504Z,26.50
2022-07-30T11:41:17.626Z,26.10
2022-07-30T11:43:41.549Z,25.70
2022-07-30T11:46:07.680Z,26.00
2022-07-30T11:48:33.751Z,25.90
2022-07-30T11:51:00.725Z,25.50
2022-07-30T11:53:26.541Z,25.30
2022-07-30T11:55:53.929Z,25.20
2022-07-30T11:58:28.575Z,25.00
2022-07-30T12:00:51.021Z,25.00
2022-07-30T12:03:15.322Z,25.20
2022-07-30T12:05:37.286Z,26.10
2022-07-30T12:07:59.875Z,27.50
2022-07-30T12:10:26.801Z,28.50
2022-07-30T12:12:49.544Z,29.10
2022-07-30T12:15:12.316Z,29.10
2022-07-30T12:17:42.546Z,28.20
2022-07-30T12:20:16.618Z,26.90
2022-07-30T12:22:38.700Z,26.60
2022-07-30T12:25:07.971Z,26.60
2022-07-30T12:27:31.617Z,26.20
2022-07-30T12:29:54.053Z,26.60
2022-07-30T12:32:17.585Z,27.80
2022-07-30T12:34:39.698Z,28.50
2022-07-30T12:37:09.748Z,29.10
2022-07-30T12:39:31.537Z,28.40
2022-07-30T12:41:56.391Z,28.80
2022-07-30T12:44:37.324Z,29.00
2022-07-30T12:46:59.804Z,28.10
2022-07-30T12:49:39.413Z,27.10
2022-07-30T12:52:18.403Z,27.30
2022-07-30T12:54:40.556Z,29.00
2022-07-30T12:57:05.581Z,29.00
2022-07-30T12:59:29.048Z,29.40
2022-07-30T13:01:53.638Z,28.90
2022-07-30T13:04:15.580Z,28.40
2022-07-30T13:06:37.985Z,28.40
2022-07-30T13:09:01.133Z,29.10
2022-07-30T13:11:24.480Z,28.30
2022-07-30T13:13:47.077Z,27.20
2022-07-30T13:16:09.441Z,26.60
2022-07-30T13:18:34.143Z,26.80
2022-07-30T13:20:56.362Z,27.20
2022-07-30T13:23:18.635Z,27.90
2022-07-30T13:25:40.650Z,28.40
2022-07-30T13:28:02.675Z,28.40
2022-07-30T13:30:24.516Z,28.30
2022-07-30T13:32:46.468Z,28.50
2022-07-30T13:35:10.548Z,28.60
2022-07-30T13:37:37.856Z,28.80
2022-07-30T13:40:00.468Z,28.80
2022-07-30T13:42:23.272Z,28.90
2022-07-30T13:44:45.168Z,28.90
2022-07-30T13:47:09.264Z,29.00
2022-07-30T13:49:31.423Z,28.60
2022-07-30T13:51:55.061Z,29.00
2022-07-30T13:54:17.216Z,29.20
2022-07-30T13:56:40.857Z,28.60
2022-07-30T13:59:04.786Z,28.50
2022-07-30T14:01:26.663Z,28.50
2022-07-30T14:03:50.856Z,29.20
2022-07-30T14:06:12.906Z,28.70
2022-07-30T14:08:36.532Z,28.30
2022-07-30T14:10:59.374Z,28.40
2022-07-30T14:13:21.559Z,28.50
2022-07-30T14:15:43.723Z,28.90
2022-07-30T14:18:05.773Z,29.10
2022-07-30T14:20:29.065Z,29.00
2022-07-30T14:22:51.474Z,28.30
2022-07-30T14:25:15.124Z,28.30
2022-07-30T14:27:37.240Z,28.70
2022-07-30T14:29:59.420Z,28.70
2022-07-30T14:32:21.339Z,28.40
2022-07-30T14:34:49.118Z,28.60
2022-07-30T14:37:14.512Z,29.20
2022-07-30T14:39:36.625Z,29.60
2022-07-30T14:41:59.660Z,30.20
2022-07-30T14:44:21.432Z,31.40
2022-07-30T14:46:52.546Z,31.10
2022-07-30T14:49:15.756Z,30.20
2022-07-30T14:51:38.866Z,29.20
2022-07-30T14:54:01.197Z,29.50
2022-07-30T14:56:24.934Z,29.60
2022-07-30T14:58:48.665Z,30.00
2022-07-30T15:01:15.913Z,29.20
2022-07-30T15:03:38.849Z,29.40
2022-07-30T15:06:00.724Z,29.10
2022-07-30T15:08:23.129Z,28.40
2022-07-30T15:10:45.057Z,27.40
2022-07-30T15:13:07.744Z,26.40
2022-07-30T15:15:32.832Z,26.00
2022-07-30T15:18:00.297Z,25.60
2022-07-30T15:20:22.448Z,25.40
2022-07-30T15:22:44.359Z,25.30
2022-07-30T15:25:07.651Z,25.30
2022-07-30T15:27:33.925Z,25.30
2022-07-30T15:29:56.492Z,24.80
2022-07-30T15:32:20.013Z,24.40
2022-07-30T15:34:42.006Z,24.20
2022-07-30T15:37:05.571Z,24.10
2022-07-30T15:39:29.332Z,23.90
2022-07-30T15:41:53.949Z,24.00
2022-07-30T15:44:16.107Z,24.00
2022-07-30T15:46:41.609Z,24.20
2022-07-30T15:49:05.114Z,24.60
2022-07-30T15:51:27.713Z,24.80
2022-07-30T15:53:50.045Z,24.90
2022-07-30T15:56:11.866Z,24.90
2022-07-30T15:58:33.890Z,24.80
2022-07-30T16:00:56.520Z,24.70
2022-07-30T16:03:18.300Z,24.30
2022-07-30T16:05:51.101Z,24.00
2022-07-30T16:08:14.464Z,23.70
2022-07-30T16:10:40.434Z,23.40
2022-07-30T16:13:03.569Z,23.30
2022-07-30T16:15:26.163Z,23.20
2022-07-30T16:17:48.369Z,23.10
2022-07-30T16:20:11.207Z,23.10
2022-07-30T16:22:34.746Z,23.00
2022-07-30T16:24:56.935Z,23.00
2022-07-30T16:27:18.832Z,22.90
2022-07-30T16:29:40.995Z,22.90
2022-07-30T16:32:03.396Z,22.80
2022-07-30T16:34:26.600Z,22.70
2022-07-30T16:36:49.071Z,22.60
2022-07-30T16:39:12.732Z,22.70
2022-07-30T16:41:34.628Z,22.60
2022-07-30T16:43:56.465Z,22.70
2022-07-30T16:46:19.061Z,22.70
2022-07-30T16:48:41.430Z,22.80
2022-07-30T16:51:03.689Z,22.90
2022-07-30T16:53:26.575Z,23.00
2022-07-30T16:55:50.028Z,23.40
2022-07-30T16:58:12.555Z,23.70
2022-07-30T17:00:34.357Z,23.80
2022-07-30T17:02:56.224Z,23.70
2022-07-30T17:05:19.140Z,23.80
2022-07-30T17:07:41.246Z,23.70
2022-07-30T17:10:03.221Z,23.40
2022-07-30T17:12:29.343Z,23.10
2022-07-30T17:14:51.584Z,22.80
2022-07-30T17:17:14.351Z,22.70
2022-07-30T17:19:36.295Z,22.50
2022-07-30T17:21:58.137Z,22.30
2022-07-30T17:24:20.827Z,22.30
2022-07-30T17:26:44.302Z,22.20
2022-07-30T17:29:13.501Z,22.40
2022-07-30T17:31:39.234Z,22.60
2022-07-30T17:34:01.409Z,22.50
2022-07-30T17:36:23.490Z,22.30
2022-07-30T17:38:45.533Z,22.20
2022-07-30T17:41:11.757Z,22.10
2022-07-30T17:43:35.481Z,22.00
2022-07-30T17:45:58.892Z,21.90
2022-07-30T17:48:21.710Z,21.80
2022-07-30T17:50:43.673Z,21.60
2022-07-30T17:53:06.623Z,21.40
2022-07-30T17:55:29.011Z,21.30
2022-07-30T17:57:51.132Z,21.00
2022-07-30T18:00:14.835Z,20.90
2022-07-30T18:02:38.375Z,20.90
2022-07-30T18:05:00.605Z,20.80
2022-07-30T18:07:22.602Z,20.70
2022-07-30T18:09:44.810Z,20.60
2022-07-30T18:12:07.359Z,20.50
2022-07-30T18:14:29.577Z,20.40
2022-07-30T18:16:52.189Z,20.40
2022-07-30T18:19:22.872Z,20.30
2022-07-30T18:21:49.057Z,20.20
2022-07-30T18:24:11.809Z,20.20
2022-07-30T18:26:38.427Z,20.10
2022-07-30T18:29:00.433Z,20.10
2022-07-30T18:31:22.418Z,20.10
2022-07-30T18:33:44.310Z,20.00
2022-07-30T18:36:07.836Z,20.00
2022-07-30T18:38:29.737Z,20.00
2022-07-30T18:40:58.452Z,19.90
2022-07-30T18:43:20.380Z,19.90
2022-07-30T18:45:42.540Z,19.90
2022-07-30T18:48:05.231Z,19.80
2022-07-30T18:50:27.779Z,19.80
2022-07-30T18:52:51.577Z,19.80
2022-07-30T18:55:14.039Z,19.70
2022-07-30T18:57:36.431Z,19.60
2022-07-30T18:59:58.398Z,19.70
2022-07-30T19:02:20.866Z,19.60
2022-07-30T19:04:42.784Z,19.60
2022-07-30T19:07:04.736Z,19.60
2022-07-30T19:09:28.181Z,19.50
2022-07-30T19:11:50.467Z,19.50
2022-07-30T19:14:13.961Z,19.40
2022-07-30T19:16:36.166Z,19.50
2022-07-30T19:18:58.095Z,19.40
2022-07-30T19:21:19.991Z,19.30
2022-07-30T19:23:41.930Z,19.20
2022-07-30T19:26:05.845Z,19.10
2022-07-30T19:28:27.888Z,19.00
2022-07-30T19:30:49.833Z,19.00
2022-07-30T19:33:15.468Z,18.90
2022-07-30T19:35:38.517Z,18.90
2022-07-30T19:38:01.041Z,18.90
2022-07-30T19:40:23.229Z,18.90
2022-07-30T19:42:51.025Z,18.80
2022-07-30T19:45:18.062Z,18.80
2022-07-30T19:47:42.237Z,18.80
2022-07-30T19:50:04.798Z,18.90
2022-07-30T19:52:27.264Z,18.80
2022-07-30T19:54:49.775Z,18.80
2022-07-30T19:57:11.694Z,18.80
2022-07-30T19:59:45.758Z,18.80
2022-07-30T20:02:17.744Z,18.80
2022-07-30T20:04:39.791Z,18.80
2022-07-30T20:07:06.229Z,18.80
2022-07-30T20:09:28.019Z,18.80
2022-07-30T20:11:52.457Z,18.80
2022-07-30T20:14:15.554Z,18.90
2022-07-30T20:17:01.919Z,18.90
2022-07-30T20:19:24.529Z,18.80
2022-07-30T20:22:06.815Z,18.90
2022-07-30T20:24:28.798Z,18.90
2022-07-30T20:26:50.701Z,18.90
2022-07-30T20:29:19.180Z,18.90
2022-07-30T20:31:41.988Z,18.90
2022-07-30T20:34:16.439Z,18.80
2022-07-30T20:36:39.801Z,18.80
2022-07-30T20:39:01.831Z,18.80
2022-07-30T20:41:27.236Z,18.70
2022-07-30T20:43:51.840Z,18.70
2022-07-30T20:46:14.951Z,18.70
2022-07-30T20:48:37.971Z,18.70
2022-07-30T20:51:01.579Z,18.70
2022-07-30T20:53:23.948Z,18.70
2022-07-30T20:55:55.571Z,18.70
2022-07-30T20:58:17.723Z,18.70
2022-07-30T21:00:41.526Z,18.70
2022-07-30T21:03:05.077Z,18.70
2022-07-30T21:05:27.643Z,18.70
2022-07-30T21:07:56.370Z,18.70
2022-07-30T21:10:23.503Z,18.70
2022-07-30T21:12:50.888Z,18.70
2022-07-30T21:15:23.465Z,18.70
2022-07-30T21:17:46.420Z,18.70
2022-07-30T21:20:13.011Z,18.70
2022-07-30T21:22:36.266Z,18.70
2022-07-30T21:25:00.711Z,18.60
2022-07-30T21:27:22.901Z,18.60
2022-07-30T21:29:52.718Z,18.60
2022-07-30T21:32:18.345Z,18.60
2022-07-30T21:34:42.365Z,18.60
2022-07-30T21:37:04.526Z,18.60
2022-07-30T21:39:28.891Z,18.60
2022-07-30T21:41:52.614Z,18.50
2022-07-30T21:44:17.726Z,18.60
2022-07-30T21:46:40.489Z,18.50
2022-07-30T21:49:06.853Z,18.50
2022-07-30T21:51:29.002Z,18.50
2022-07-30T21:53:52.522Z,18.50
2022-07-30T21:56:16.227Z,18.50
2022-07-30T21:58:39.665Z,18.50
2022-07-30T22:01:16.581Z,18.40
2022-07-30T22:04:02.631Z,18.40
2022-07-30T22:06:28.890Z,18.40
2022-07-30T22:08:51.581Z,18.30
2022-07-30T22:11:13.893Z,18.30
2022-07-30T22:13:51.241Z,18.30
2022-07-30T22:16:15.685Z,18.30
2022-07-30T22:18:37.481Z,18.20
2022-07-30T22:21:00.913Z,18.20
2022-07-30T22:23:23.488Z,18.20
2022-07-30T22:25:46.920Z,18.20
2022-07-30T22:28:12.048Z,18.20
2022-07-30T22:30:37.053Z,18.20
2022-07-30T22:33:15.085Z,18.20
2022-07-30T22:35:37.518Z,18.20
2022-07-30T22:38:01.016Z,18.20
2022-07-30T22:40:24.670Z,18.20
2022-07-30T22:42:50.018Z,18.20
2022-07-30T22:45:12.412Z,18.20
2022-07-30T22:47:51.276Z,18.20
2022-07-30T22:50:17.528Z,18.20
2022-07-30T22:52:55.062Z,18.10
2022-07-30T22:55:22.348Z,18.10
2022-07-30T22:57:44.285Z,18.10
2022-07-30T23:00:13.082Z,18.10
2022-07-30T23:02:37.321Z,18.10
2022-07-30T23:04:59.447Z,18.10
2022-07-30T23:07:34.123Z,18.10
2022-07-30T23:10:01.817Z,18.10
2022-07-30T23:12:24.764Z,18.10
2022-07-30T23:14:46.543Z,18.10
2022-07-30T23:17:08.475Z,18.10
2022-07-30T23:19:32.050Z,18.10
2022-07-30T23:21:54.164Z,18.10
2022-07-30T23:24:17.791Z,18.10
2022-07-30T23:26:39.855Z,18.10
2022-07-30T23:29:01.978Z,18.10
2022-07-30T23:31:26.913Z,18.10
2022-07-30T23:33:48.962Z,18.10
2022-07-30T23:36:12.415Z,18.00
2022-07-30T23:38:34.695Z,18.10
2022-07-30T23:41:01.093Z,18.00
2022-07-30T23:43:23.187Z,18.00
2022-07-30T23:45:45.169Z,18.00
2022-07-30T23:48:07.488Z,18.00
2022-07-30T23:50:29.442Z,18.00
2022-07-30T23:52:52.818Z,18.00
2022-07-30T23:55:15.036Z,18.00
2022-07-30T23:57:39.321Z,18.00
